Kilgetty, United Kingdom
Current Conditions -  °F | °C
As of 8:50 PM on Monday 24 Nov 2014 (Local Time) from EGOP Reporting Station
Clear Clear  
Wind Chill: 26°   Ceiling: Unl
Heat Index: 32°   Visibility: 6mi
Dew Point: 30°   Wind: 6mph
Humidity: 93%   Direction: 70°ENE
Pressure: 30.33"   Gusts: NA
Location:  51.73°N, 4.76°W
Report Text: EGOP 242050Z AUTO 07005KT 9000 // NCD M00/M01 Q1027
Loading
Personal Weather Stations






























Interactive Weather Map New forecast layout! Learn more

10-Day Weather Forecast

Advertisements
Track Severe Weather on mobile